Time;durP1;ratioP1;P1;durP2;ratioP2;P2;SDS_P1;SDS_P2;PMS_P1;PMS_P2;Temp;Humidity;BMP_temperature;BMP_pressure;BME280_temperature;BME280_humidity;BME280_pressure;Samples;Min_cycle;Max_cycle;Signal;HPM_P1;HPM_P2
2022/02/09 00:04:20;;;;;;;;;4.00;0.67;;;;;;;;5118503;28;8769;-75
2022/02/09 00:09:11;;;;;;;;;11.67;11.00;;;;;;;;5118185;28;22630;-76
2022/02/09 00:11:45;;;;;;;;;14.00;14.00;;;;;;;;5118838;28;10510;-76
2022/02/09 00:14:32;;;;;;;;;18.00;13.33;;;;;;;;5100216;28;11094;-76
2022/02/09 00:19:41;;;;;;;;;13.33;13.00;;;;;;;;5118898;28;11420;-76
2022/02/09 00:28:03;;;;;;;;;17.00;13.67;;;;;;;;5070365;28;11641;-76
2022/02/09 01:56:28;;;;;;;;;12.33;9.00;;;;;;;;5120740;28;23115;-77
2022/02/09 01:58:54;;;;;;;;;11.00;8.33;;;;;;;;5120141;28;21634;-77
2022/02/09 02:01:20;;;;;;;;;10.00;9.00;;;;;;;;5121553;28;10517;-77
2022/02/09 02:03:45;;;;;;;;;8.33;8.33;;;;;;;;5121078;28;10307;-76
2022/02/09 02:06:12;;;;;;;;;12.00;10.00;;;;;;;;5120620;28;23390;-78
2022/02/09 02:08:38;;;;;;;;;12.00;12.00;;;;;;;;5120573;28;22640;-77
2022/02/09 02:11:15;;;;;;;;;12.33;10.00;;;;;;;;5121376;28;8784;-77
2022/02/09 02:16:26;;;;;;;;;11.33;10.00;;;;;;;;5120557;28;10004;-77
2022/02/09 02:19:28;;;;;;;;;13.00;9.33;;;;;;;;5121755;28;9498;-77
2022/02/09 02:38:04;;;;;;;;;15.00;10.00;;;;;;;;5119414;28;11377;-77
2022/02/09 02:41:56;;;;;;;;;17.00;12.33;;;;;;;;5120325;28;10413;-76
2022/02/09 03:13:14;;;;;;;;;19.00;12.00;;;;;;;;5119089;28;21418;-76
2022/02/09 03:20:48;;;;;;;;;13.00;12.00;;;;;;;;5118919;28;22581;-74
2022/02/09 03:23:51;;;;;;;;;15.33;13.00;;;;;;;;5119389;28;12640;-74
2022/02/09 03:45:36;;;;;;;;;15.00;11.33;;;;;;;;5119432;28;11422;-77
2022/02/09 03:47:57;;;;;;;;;10.33;10.33;;;;;;;;5119236;28;8954;-77
2022/02/09 03:50:42;;;;;;;;;11.33;11.33;;;;;;;;5120075;28;10414;-77
2022/02/09 03:53:44;;;;;;;;;12.67;10.00;;;;;;;;5120296;28;8804;-76
2022/02/09 03:58:27;;;;;;;;;12.33;12.33;;;;;;;;5119980;28;8879;-76
2022/02/09 04:00:52;;;;;;;;;10.00;7.00;;;;;;;;5119784;28;8977;-77
2022/02/09 04:03:21;;;;;;;;;15.00;7.67;;;;;;;;5119806;28;21595;-76
2022/02/09 04:05:48;;;;;;;;;11.33;7.00;;;;;;;;5119831;28;10357;-76
2022/02/09 04:08:17;;;;;;;;;10.00;8.33;;;;;;;;5119422;28;10611;-77
2022/02/09 04:11:00;;;;;;;;;9.00;9.00;;;;;;;;5119624;28;10372;-77
2022/02/09 04:19:05;;;;;;;;;11.33;7.67;;;;;;;;5119042;28;10307;-76
2022/02/09 04:38:07;;;;;;;;;9.00;7.00;;;;;;;;5122880;28;11351;-75
2022/02/09 04:43:23;;;;;;;;;12.00;7.00;;;;;;;;5122117;28;11569;-75
2022/02/09 04:51:32;;;;;;;;;6.67;6.67;;;;;;;;5123009;28;11342;-76
2022/02/09 04:59:15;;;;;;;;;4.50;2.00;;;;;;;;5121059;28;21313;-84
2022/02/09 05:02:10;;;;;;;;;8.50;8.50;;;;;;;;5121972;28;11431;-73
2022/02/09 05:05:06;;;;;;;;;12.00;10.00;;;;;;;;5121284;28;11435;-74
2022/02/09 05:26:06;;;;;;;;;16.75;13.00;;;;;;;;5121297;28;22354;-81
2022/02/09 05:28:32;;;;;;;;;13.00;13.00;;;;;;;;5121769;28;10426;-81
2022/02/09 05:30:57;;;;;;;;;13.00;11.50;;;;;;;;5121259;28;8812;-80
2022/02/09 05:33:23;;;;;;;;;12.50;12.00;;;;;;;;5121378;28;8839;-82
2022/02/09 05:35:49;;;;;;;;;13.00;9.75;;;;;;;;5121853;28;11345;-87
2022/02/09 05:38:15;;;;;;;;;15.50;9.50;;;;;;;;5121118;28;21382;-80
2022/02/09 05:40:43;;;;;;;;;7.50;5.00;;;;;;;;5121052;27;10444;-79
2022/02/09 05:43:10;;;;;;;;;15.00;12.00;;;;;;;;5121591;28;21917;-80
2022/02/09 05:51:06;;;;;;;;;13.00;13.00;;;;;;;;5030013;28;12100;-79
2022/02/09 05:53:43;;;;;;;;;15.00;12.25;;;;;;;;5102504;28;13018;-78
2022/02/09 05:56:35;;;;;;;;;16.50;14.75;;;;;;;;5122141;28;11496;-76
2022/02/09 06:01:35;;;;;;;;;15.00;13.00;;;;;;;;5120843;28;13283;-78
2022/02/09 06:04:00;;;;;;;;;18.50;16.25;;;;;;;;5121469;28;9733;-78
2022/02/09 06:06:25;;;;;;;;;16.00;12.75;;;;;;;;5102155;28;11711;-76
2022/02/09 06:08:51;;;;;;;;;12.00;12.00;;;;;;;;5120483;28;10339;-76
2022/02/09 06:21:56;;;;;;;;;18.75;13.00;;;;;;;;5129055;27;12458;-74
2022/02/09 06:24:21;;;;;;;;;21.00;16.00;;;;;;;;5128701;27;11834;-74
2022/02/09 06:26:47;;;;;;;;;11.00;10.00;;;;;;;;5129667;27;12331;-75
2022/02/09 06:29:12;;;;;;;;;18.75;17.50;;;;;;;;5128708;27;10336;-78
2022/02/09 06:31:38;;;;;;;;;18.25;16.00;;;;;;;;5129287;27;11661;-73
2022/02/09 06:34:04;;;;;;;;;15.25;13.50;;;;;;;;5130610;27;10514;-84
2022/02/09 06:36:30;;;;;;;;;16.50;15.00;;;;;;;;5129077;27;11446;-77
2022/02/09 06:39:03;;;;;;;;;21.25;16.50;;;;;;;;5107714;27;13495;-78
2022/02/09 06:41:28;;;;;;;;;18.75;13.00;;;;;;;;5127912;27;14024;-78
2022/02/09 06:43:54;;;;;;;;;15.50;14.00;;;;;;;;5116493;28;13266;-82
2022/02/09 06:46:20;;;;;;;;;18.75;16.50;;;;;;;;5119843;28;11649;-78
2022/02/09 06:48:45;;;;;;;;;17.50;17.50;;;;;;;;5120762;28;11383;-82
2022/02/09 06:51:14;;;;;;;;;18.75;15.00;;;;;;;;5120295;28;10309;-81
2022/02/09 06:54:01;;;;;;;;;18.75;16.00;;;;;;;;5119202;28;11588;-77
2022/02/09 06:56:41;;;;;;;;;15.00;15.00;;;;;;;;5120094;28;8923;-80
2022/02/09 06:59:13;;;;;;;;;16.00;13.50;;;;;;;;5119819;28;11120;-81
2022/02/09 07:01:39;;;;;;;;;20.00;19.00;;;;;;;;5120028;28;12071;-79
2022/02/09 07:04:04;;;;;;;;;17.50;15.75;;;;;;;;5118902;28;13221;-81
2022/02/09 07:06:30;;;;;;;;;18.75;17.00;;;;;;;;5110462;28;13230;-81
2022/02/09 07:08:56;;;;;;;;;25.75;23.25;;;;;;;;5098540;28;11916;-80
2022/02/09 07:11:21;;;;;;;;;17.00;15.00;;;;;;;;5099536;28;13526;-80
2022/02/09 07:13:46;;;;;;;;;20.00;17.50;;;;;;;;5099860;28;14427;-81
2022/02/09 07:16:12;;;;;;;;;21.50;16.00;;;;;;;;5098707;28;13214;-80
2022/02/09 07:18:38;;;;;;;;;23.25;15.00;;;;;;;;5118119;28;11524;-80
2022/02/09 07:21:11;;;;;;;;;27.00;15.25;;;;;;;;5119225;28;10687;-80
2022/02/09 07:23:43;;;;;;;;;18.50;16.25;;;;;;;;5113744;28;12875;-80
2022/02/09 07:26:12;;;;;;;;;22.00;16.50;;;;;;;;5106680;28;13439;-80
2022/02/09 07:28:38;;;;;;;;;17.00;16.50;;;;;;;;5099128;28;13628;-81
2022/02/09 07:31:06;;;;;;;;;19.50;18.00;;;;;;;;5099916;28;8838;-81
2022/02/09 07:33:32;;;;;;;;;18.50;15.00;;;;;;;;5099706;28;11625;-81
2022/02/09 07:35:57;;;;;;;;;23.00;16.50;;;;;;;;5099162;28;10263;-81
2022/02/09 07:38:22;;;;;;;;;25.67;15.33;;;;;;;;5099076;28;13214;-82
2022/02/09 07:40:51;;;;;;;;;21.00;17.33;;;;;;;;5082468;28;13973;-83
2022/02/09 07:43:23;;;;;;;;;14.33;12.33;;;;;;;;5080489;28;12757;-81
2022/02/09 07:46:18;;;;;;;;;25.33;21.67;;;;;;;;5112652;28;12752;-80
2022/02/09 07:54:00;;;;;;;;;23.00;20.33;;;;;;;;5122259;28;8768;-88
2022/02/09 07:56:27;;;;;;;;;25.00;20.67;;;;;;;;5123989;28;11498;-87
2022/02/09 07:58:52;;;;;;;;;24.00;24.00;;;;;;;;5119599;28;12008;-81
2022/02/09 08:01:18;;;;;;;;;28.00;21.00;;;;;;;;5118857;28;11813;-81
2022/02/09 08:03:43;;;;;;;;;30.33;27.67;;;;;;;;5100474;28;11010;-82
2022/02/09 08:06:09;;;;;;;;;38.33;30.00;;;;;;;;5101468;28;15334;-83
2022/02/09 08:08:36;;;;;;;;;35.33;30.67;;;;;;;;5118083;28;12218;-75
2022/02/09 08:27:42;;;;;;;;;33.00;32.67;;;;;;;;5055007;28;12228;-77
2022/02/09 08:32:45;;;;;;;;;36.33;31.33;;;;;;;;5118423;28;12580;-77
2022/02/09 08:35:11;;;;;;;;;37.33;32.33;;;;;;;;5117746;28;13681;-77
2022/02/09 08:37:37;;;;;;;;;34.33;30.67;;;;;;;;5118766;28;8916;-77
2022/02/09 08:40:03;;;;;;;;;33.67;32.00;;;;;;;;5118925;28;11533;-77
2022/02/09 08:42:28;;;;;;;;;35.33;31.67;;;;;;;;5099491;28;12022;-77
2022/02/09 08:44:54;;;;;;;;;34.33;30.00;;;;;;;;5118493;28;11362;-78
2022/02/09 08:47:20;;;;;;;;;38.33;32.33;;;;;;;;5117916;28;11379;-78
2022/02/09 08:49:46;;;;;;;;;38.67;37.67;;;;;;;;5118656;28;11467;-78
2022/02/09 08:52:12;;;;;;;;;34.00;33.00;;;;;;;;5118676;28;10334;-77
2022/02/09 08:54:37;;;;;;;;;33.00;32.00;;;;;;;;5117979;28;11401;-79
2022/02/09 08:57:08;;;;;;;;;36.00;32.33;;;;;;;;5118562;28;9861;-82
2022/02/09 08:59:34;;;;;;;;;45.00;36.33;;;;;;;;5118421;28;11603;-82
2022/02/09 09:02:04;;;;;;;;;39.00;37.33;;;;;;;;5117572;28;10360;-82
2022/02/09 09:04:34;;;;;;;;;42.00;38.00;;;;;;;;5117942;28;11553;-81
2022/02/09 09:07:06;;;;;;;;;42.33;41.00;;;;;;;;5098361;28;15762;-81
2022/02/09 10:03:26;;;;;;;;;50.67;42.00;;;;;;;;5119386;28;12192;-78
2022/02/09 10:31:45;;;;;;;;;49.00;43.33;;;;;;;;5120526;28;10398;-91
2022/02/09 10:33:54;;;;;;;;;48.33;42.33;;;;;;;;5117661;28;13357;-74
2022/02/09 10:36:20;;;;;;;;;51.33;44.00;;;;;;;;5124369;27;10454;-74
2022/02/09 10:38:51;;;;;;;;;50.00;43.33;;;;;;;;5127443;27;13921;-75
2022/02/09 10:41:27;;;;;;;;;47.33;42.00;;;;;;;;5126516;27;11473;-75
2022/02/09 10:44:10;;;;;;;;;43.67;40.00;;;;;;;;5127572;27;13688;-74
2022/02/09 10:46:45;;;;;;;;;48.33;41.33;;;;;;;;5126614;27;10849;-76
2022/02/09 10:49:11;;;;;;;;;51.67;44.00;;;;;;;;5110393;27;14833;-75
2022/02/09 10:51:43;;;;;;;;;54.33;45.67;;;;;;;;5125990;27;13772;-75
2022/02/09 10:54:10;;;;;;;;;54.33;44.67;;;;;;;;5127276;27;11964;-74
2022/02/09 10:56:36;;;;;;;;;53.00;44.00;;;;;;;;5129506;27;8734;-75
2022/02/09 10:59:03;;;;;;;;;48.00;40.33;;;;;;;;5108566;27;14957;-77
2022/02/09 11:01:33;;;;;;;;;50.67;42.33;;;;;;;;5127287;27;14005;-76
2022/02/09 11:03:59;;;;;;;;;57.00;44.67;;;;;;;;5107484;27;13503;-77
2022/02/09 11:06:34;;;;;;;;;51.67;39.67;;;;;;;;5129893;27;11734;-76
2022/02/09 11:09:00;;;;;;;;;43.67;39.33;;;;;;;;5129052;27;11581;-75
2022/02/09 11:11:27;;;;;;;;;45.33;39.33;;;;;;;;5133705;27;14155;-76
2022/02/09 11:13:52;;;;;;;;;46.25;40.00;;;;;;;;5139804;27;11451;-75
2022/02/09 11:16:18;;;;;;;;;45.00;38.50;;;;;;;;5120345;27;14604;-73
2022/02/09 11:18:47;;;;;;;;;45.25;37.25;;;;;;;;5139687;27;12371;-74
2022/02/09 11:21:14;;;;;;;;;52.00;42.50;;;;;;;;5139615;27;10504;-74
2022/02/09 11:23:45;;;;;;;;;42.75;37.50;;;;;;;;5103554;28;13750;-76
2022/02/09 11:26:31;;;;;;;;;38.75;36.00;;;;;;;;5105247;28;13618;-73
2022/02/09 11:34:50;;;;;;;;;26.50;25.75;;;;;;;;5128737;27;12267;-78
2022/02/09 11:37:26;;;;;;;;;40.75;33.75;;;;;;;;5125830;27;12545;-81
2022/02/09 11:39:54;;;;;;;;;33.75;31.00;;;;;;;;5125678;27;12295;-81
2022/02/09 11:42:25;;;;;;;;;30.25;28.75;;;;;;;;5131274;27;13311;-92
2022/02/09 11:44:57;;;;;;;;;47.75;39.00;;;;;;;;5138811;27;12878;-92
2022/02/09 11:47:53;;;;;;;;;30.50;29.00;;;;;;;;5120991;27;13668;-91
2022/02/09 12:09:34;;;;;;;;;30.25;25.25;;;;;;;;5124305;27;12581;-79
2022/02/09 12:12:03;;;;;;;;;25.00;22.00;;;;;;;;5126134;27;12508;-81
2022/02/09 12:15:04;;;;;;;;;27.75;23.00;;;;;;;;5126135;27;14497;-78
2022/02/09 12:20:05;;;;;;;;;30.75;27.50;;;;;;;;5123567;27;11600;-81
2022/02/09 12:22:40;;;;;;;;;20.50;18.00;;;;;;;;5124313;27;14116;-82
2022/02/09 12:25:06;;;;;;;;;25.50;23.00;;;;;;;;5133723;27;13388;-94
2022/02/09 12:27:32;;;;;;;;;28.50;21.50;;;;;;;;5112719;27;11491;-94
2022/02/09 12:29:58;;;;;;;;;23.75;22.00;;;;;;;;5107493;28;13051;-92
2022/02/09 12:32:26;;;;;;;;;29.25;26.00;;;;;;;;5127743;27;12757;-91
2022/02/09 12:34:51;;;;;;;;;25.75;25.75;;;;;;;;5111702;27;12643;-91
2022/02/09 12:37:17;;;;;;;;;24.50;21.50;;;;;;;;5118246;27;13121;-82
2022/02/09 12:39:49;;;;;;;;;24.75;22.00;;;;;;;;5123262;27;13278;-95
2022/02/09 12:42:15;;;;;;;;;21.25;19.00;;;;;;;;5105742;27;10456;-95
2022/02/09 12:44:40;;;;;;;;;22.00;19.25;;;;;;;;5128776;27;11515;-77
2022/02/09 12:47:06;;;;;;;;;21.25;19.25;;;;;;;;5128365;27;11367;-82
2022/02/09 12:49:32;;;;;;;;;25.50;23.25;;;;;;;;5128373;27;8920;-88
2022/02/09 12:51:57;;;;;;;;;19.50;18.50;;;;;;;;5125151;27;11667;-82
2022/02/09 12:54:23;;;;;;;;;25.00;23.25;;;;;;;;5123101;27;14430;-78
2022/02/09 12:56:50;;;;;;;;;23.00;19.50;;;;;;;;5130254;27;13403;-78
2022/02/09 12:59:16;;;;;;;;;19.25;17.50;;;;;;;;5112817;27;14540;-77
2022/02/09 13:01:48;;;;;;;;;24.25;19.75;;;;;;;;5129844;27;12884;-84
2022/02/09 13:04:27;;;;;;;;;22.75;19.25;;;;;;;;5110840;27;13927;-87
2022/02/09 13:06:52;;;;;;;;;21.50;19.25;;;;;;;;5128657;27;11455;-84
2022/02/09 13:09:18;;;;;;;;;9.00;8.75;;;;;;;;5129138;27;11556;-85
2022/02/09 13:11:43;;;;;;;;;11.00;9.00;;;;;;;;5107104;27;25236;-86
2022/02/09 13:14:17;;;;;;;;;14.25;14.00;;;;;;;;5112280;27;23606;-83
2022/02/09 14:02:48;;;;;;;;;3.50;3.50;;;;;;;;5197395;27;11475;-73
2022/02/09 14:51:41;;;;;;;;;4.00;2.00;;;;;;;;5179361;27;22148;-72
2022/02/09 14:54:04;;;;;;;;;1.75;1.75;;;;;;;;5166426;27;11459;-72
2022/02/09 14:56:55;;;;;;;;;3.75;2.00;;;;;;;;5168986;27;11487;-72
2022/02/09 15:02:33;;;;;;;;;3.00;3.00;;;;;;;;5135485;27;11531;-72
2022/02/09 15:10:15;;;;;;;;;3.50;3.00;;;;;;;;5179165;27;12318;-73
2022/02/09 15:12:58;;;;;;;;;7.50;3.25;;;;;;;;5180913;27;10890;-75
2022/02/09 15:22:54;;;;;;;;;4.25;4.00;;;;;;;;5182456;27;11584;-74
2022/02/09 15:25:22;;;;;;;;;11.25;10.50;;;;;;;;5164199;27;11812;-74
2022/02/09 15:27:51;;;;;;;;;6.50;5.00;;;;;;;;5180643;27;22313;-73
2022/02/09 15:30:16;;;;;;;;;3.25;3.25;;;;;;;;5162375;27;25520;-74
2022/02/09 15:32:46;;;;;;;;;8.50;5.00;;;;;;;;5181961;27;11557;-74
2022/02/09 15:38:01;;;;;;;;;4.00;4.00;;;;;;;;5181378;27;11415;-74
2022/02/09 15:59:13;;;;;;;;;7.50;5.25;;;;;;;;5181477;27;22193;-73
2022/02/09 16:09:52;;;;;;;;;2.75;2.75;;;;;;;;5182926;27;12558;-73
2022/02/09 16:23:01;;;;;;;;;4.00;4.00;;;;;;;;5173901;27;8798;-74
2022/02/09 16:46:34;;;;;;;;;5.75;2.00;;;;;;;;5170991;27;11524;-72
2022/02/09 16:49:05;;;;;;;;;3.50;2.00;;;;;;;;5167114;27;12418;-71
2022/02/09 16:51:45;;;;;;;;;2.75;1.00;;;;;;;;5160589;27;11453;-71
2022/02/09 17:21:07;;;;;;;;;2.25;2.00;;;;;;;;5178269;27;12306;-72
2022/02/09 17:23:32;;;;;;;;;57.33;45.67;;;;;;;;5181222;27;11485;-72
2022/02/09 17:25:57;;;;;;;;;4.50;2.50;;;;;;;;5156293;27;24147;-71
2022/02/09 17:28:26;;;;;;;;;2.00;2.00;;;;;;;;5177016;27;22562;-72
2022/02/09 17:39:03;;;;;;;;;6.00;5.25;;;;;;;;5180910;27;11593;-76
2022/02/09 18:00:32;;;;;;;;;3.50;3.50;;;;;;;;5072365;28;22538;-72
2022/02/09 18:02:57;;;;;;;;;2.25;2.00;;;;;;;;5071904;28;11689;-71
2022/02/09 18:05:28;;;;;;;;;5.00;4.00;;;;;;;;5070435;28;11705;-70
2022/02/09 18:07:58;;;;;;;;;6.00;3.50;;;;;;;;5066328;28;10368;-71
2022/02/09 18:34:45;;;;;;;;;7.00;6.00;;;;;;;;5179402;27;13303;-72
2022/02/09 18:47:53;;;;;;;;;17.50;13.75;;;;;;;;5170043;27;11490;-73
2022/02/09 19:04:08;;;;;;;;;7.00;7.00;;;;;;;;5181040;27;22546;-71
2022/02/09 19:14:59;;;;;;;;;9.75;6.00;;;;;;;;5162447;27;11421;-71
2022/02/09 19:17:35;;;;;;;;;6.00;6.00;;;;;;;;5161775;27;11474;-73
2022/02/09 19:31:04;;;;;;;;;18.00;14.00;;;;;;;;5171178;27;11636;-72
2022/02/09 19:46:58;;;;;;;;;34.67;29.33;;;;;;;;5168327;27;13260;-73
2022/02/09 19:52:13;;;;;;;;;49.33;35.00;;;;;;;;5169515;27;12287;-74
2022/02/09 19:55:40;;;;;;;;;28.75;22.50;;;;;;;;5170948;27;14059;-73
2022/02/09 19:57:38;;;;;;;;;24.00;18.50;;;;;;;;5157816;27;13335;-74
2022/02/09 20:00:07;;;;;;;;;22.25;20.00;;;;;;;;5170112;27;12466;-75
2022/02/09 20:02:33;;;;;;;;;23.50;18.50;;;;;;;;5170941;27;12339;-74
2022/02/09 20:04:58;;;;;;;;;22.50;21.75;;;;;;;;5171353;27;12355;-74
2022/02/09 20:07:23;;;;;;;;;22.25;20.50;;;;;;;;5169056;27;12327;-74
2022/02/09 20:09:49;;;;;;;;;27.00;20.50;;;;;;;;5170813;27;10370;-73
2022/02/09 20:12:15;;;;;;;;;24.25;22.50;;;;;;;;5159556;22;9270;-82
2022/02/09 20:14:41;;;;;;;;;28.00;24.00;;;;;;;;5110173;27;11062;-80
2022/02/09 20:17:06;;;;;;;;;29.00;23.33;;;;;;;;5111040;27;13209;-82
2022/02/09 20:19:32;;;;;;;;;20.25;19.00;;;;;;;;5116140;27;12207;-81
2022/02/09 20:21:58;;;;;;;;;12.00;7.50;;;;;;;;5141136;27;12609;-81
2022/02/09 20:24:24;;;;;;;;;26.75;22.00;;;;;;;;5128593;27;22718;-83
2022/02/09 20:26:52;;;;;;;;;21.25;19.50;;;;;;;;5129180;27;22935;-81
2022/02/09 20:29:25;;;;;;;;;30.00;26.33;;;;;;;;5127852;27;12466;-78
2022/02/09 20:32:08;;;;;;;;;33.33;25.67;;;;;;;;5126750;27;14386;-79
2022/02/09 20:34:40;;;;;;;;;21.50;20.00;;;;;;;;5127819;27;12312;-80
2022/02/09 20:37:09;;;;;;;;;22.00;21.00;;;;;;;;5125485;27;13441;-79
2022/02/09 20:39:41;;;;;;;;;23.33;20.67;;;;;;;;5119646;27;11570;-78
2022/02/09 20:42:10;;;;;;;;;29.67;26.33;;;;;;;;5126727;27;11703;-81
2022/02/09 20:44:42;;;;;;;;;26.50;20.25;;;;;;;;5126696;27;11496;-78
2022/02/09 20:47:10;;;;;;;;;23.25;23.25;;;;;;;;5126530;27;11580;-79
2022/02/09 20:49:35;;;;;;;;;23.33;20.67;;;;;;;;5115928;27;12427;-80
2022/02/09 20:52:00;;;;;;;;;52.00;44.67;;;;;;;;5123845;27;11601;-78
2022/02/09 20:54:26;;;;;;;;;44.33;38.33;;;;;;;;5127887;27;12285;-79
2022/02/09 20:56:52;;;;;;;;;30.67;27.00;;;;;;;;5108589;27;16492;-78
2022/02/09 20:59:18;;;;;;;;;25.33;20.67;;;;;;;;5116680;27;15126;-78
2022/02/09 21:04:12;;;;;;;;;32.25;21.00;;;;;;;;5128144;27;12161;-76
2022/02/09 21:09:43;;;;;;;;;17.33;13.33;;;;;;;;5128721;27;13413;-73
2022/02/09 22:19:32;;;;;;;;;13.75;9.25;;;;;;;;5122455;28;11379;-74
2022/02/09 22:27:28;;;;;;;;;17.00;13.50;;;;;;;;5121731;28;21410;-75
2022/02/09 22:30:31;;;;;;;;;16.25;12.00;;;;;;;;5103168;28;14486;-75
2022/02/09 22:56:33;;;;;;;;;18.33;15.67;;;;;;;;5142493;27;11567;-74
2022/02/09 22:59:04;;;;;;;;;13.25;13.25;;;;;;;;5142282;27;11557;-74
2022/02/09 23:01:38;;;;;;;;;15.33;14.00;;;;;;;;5123159;27;14471;-75
2022/02/09 23:07:04;;;;;;;;;19.67;16.00;;;;;;;;5142110;27;11542;-74
2022/02/09 23:12:32;;;;;;;;;16.75;13.00;;;;;;;;5141797;27;11613;-72
2022/02/09 23:21:14;;;;;;;;;11.00;7.00;;;;;;;;5117415;27;11450;-73
